Time;durP1;ratioP1;P1;durP2;ratioP2;P2;SDS_P1;SDS_P2;PMS_P1;PMS_P2;Temp;Humidity;BMP_temperature;BMP_pressure;BME280_temperature;BME280_humidity;BME280_pressure;Samples;Min_cycle;Max_cycle;Signal;HPM_P1;HPM_P2
2024/03/23 00:01:44;;;;;;;;;9.00;7.75;;;;;-143.90;100.00;74866.25;4864625;28;101978;-73
2024/03/23 00:04:09;;;;;;;;;8.25;6.25;;;;;-143.90;100.00;74872.47;4877770;28;103279;-72
2024/03/23 00:06:35;;;;;;;;;16.50;15.75;;;;;-143.90;100.00;74880.72;4883324;28;103054;-72
2024/03/23 00:09:00;;;;;;;;;14.50;13.00;;;;;-143.90;100.00;74886.94;4869989;28;104021;-73
2024/03/23 00:11:26;;;;;;;;;11.00;9.75;;;;;-143.90;100.00;74891.06;4872169;28;102201;-73
2024/03/23 00:13:51;;;;;;;;;21.00;17.00;;;;;-143.90;100.00;74897.25;4878119;28;102363;-73
2024/03/23 00:16:17;;;;;;;;;22.25;19.25;;;;;-143.90;100.00;74915.88;4870042;28;104520;-73
2024/03/23 00:18:42;;;;;;;;;21.00;18.00;;;;;-143.90;100.00;74917.94;4872409;28;101965;-73
2024/03/23 00:21:09;;;;;;;;;19.75;17.50;;;;;-143.90;100.00;74907.59;4872145;28;102369;-73
2024/03/23 00:23:34;;;;;;;;;25.50;22.25;;;;;-143.90;100.00;74920.00;4866305;28;102730;-73
2024/03/23 00:26:00;;;;;;;;;37.50;31.50;;;;;-143.90;100.00;74942.75;4869566;28;104625;-73
2024/03/23 00:28:25;;;;;;;;;46.75;35.75;;;;;-143.90;100.00;74953.09;4872908;28;102179;-72
2024/03/23 00:30:51;;;;;;;;;50.75;38.25;;;;;-143.90;100.00;74963.41;4874219;28;102053;-73
2024/03/23 00:33:16;;;;;;;;;45.00;37.00;;;;;-143.90;100.00;74961.34;4863763;28;102487;-73
2024/03/23 00:35:42;;;;;;;;;54.50;42.25;;;;;-143.90;100.00;74969.63;4866737;28;103731;-73
2024/03/23 00:38:08;;;;;;;;;51.00;38.75;;;;;-143.90;100.00;74959.28;4870892;28;102554;-73
2024/03/23 00:40:34;;;;;;;;;42.00;34.50;;;;;-143.90;100.00;74969.63;4872316;28;102597;-73
2024/03/23 00:42:59;;;;;;;;;57.00;40.00;;;;;-143.90;100.00;74969.63;4869038;28;103109;-73
2024/03/23 00:45:25;;;;;;;;;47.25;35.25;;;;;-143.90;100.00;74969.63;4858605;28;102751;-73
2024/03/23 00:47:50;;;;;;;;;51.00;39.50;;;;;-143.90;100.00;74977.88;4871772;28;106273;-73
2024/03/23 00:50:16;;;;;;;;;50.00;37.25;;;;;-143.90;100.00;74982.03;4867259;28;102447;-73
2024/03/23 00:52:41;;;;;;;;;47.00;40.00;;;;;-143.90;100.00;74982.03;4867172;28;104301;-72
2024/03/23 00:55:07;;;;;;;;;49.50;38.25;;;;;-143.90;100.00;74975.81;4871580;28;104517;-72
2024/03/23 00:57:33;;;;;;;;;45.50;34.75;;;;;-143.90;100.00;74969.63;4858236;28;102380;-73
2024/03/23 00:59:59;;;;;;;;;38.50;32.50;;;;;-143.90;100.00;74965.50;4861679;28;102400;-73
2024/03/23 01:02:24;;;;;;;;;28.50;23.00;;;;;-143.90;100.00;74957.22;4866583;28;102009;-73
2024/03/23 01:04:50;;;;;;;;;34.25;29.00;;;;;-143.90;100.00;74965.50;4878730;28;104527;-73
2024/03/23 01:07:15;;;;;;;;;42.50;34.75;;;;;-143.90;100.00;74965.50;4871558;28;102045;-74
2024/03/23 01:09:41;;;;;;;;;72.67;53.00;;;;;-143.90;100.00;74971.69;4861284;28;102294;-73
2024/03/23 01:12:06;;;;;;;;;70.33;53.00;;;;;-143.90;100.00;74986.16;4880026;28;102393;-73
2024/03/23 01:14:32;;;;;;;;;72.00;52.67;;;;;-143.90;100.00;74982.03;4862156;28;104512;-73
2024/03/23 01:16:58;;;;;;;;;69.00;46.00;;;;;-143.90;100.00;74977.88;4859442;28;102188;-73
2024/03/23 01:19:23;;;;;;;;;65.50;48.75;;;;;-143.90;100.00;74973.75;4872887;28;101910;-73
2024/03/23 01:21:49;;;;;;;;;62.25;48.75;;;;;-143.90;100.00;74979.97;4869883;28;102183;-73
2024/03/23 01:24:15;;;;;;;;;61.25;47.00;;;;;-143.90;100.00;74979.97;4868447;28;104639;-73
2024/03/23 01:26:41;;;;;;;;;65.50;47.00;;;;;-143.90;100.00;74975.81;4885080;28;103560;-73
2024/03/23 01:29:07;;;;;;;;;49.25;40.25;;;;;-143.90;100.00;74973.75;4885509;28;102389;-73
2024/03/23 01:31:32;;;;;;;;;61.00;45.75;;;;;-143.90;100.00;74977.88;4862600;28;102083;-73
2024/03/23 01:33:58;;;;;;;;;57.25;43.25;;;;;-143.90;100.00;74982.03;4871947;28;104580;-73
2024/03/23 01:36:24;;;;;;;;;53.25;41.50;;;;;-143.90;100.00;74988.22;4870107;28;102321;-72
2024/03/23 01:38:51;;;;;;;;;55.00;44.00;;;;;-143.90;100.00;74984.09;4871602;28;102494;-73
2024/03/23 01:41:17;;;;;;;;;53.50;41.00;;;;;-143.90;100.00;74984.09;4884514;28;102480;-73
2024/03/23 01:43:43;;;;;;;;;54.75;42.50;;;;;-143.90;100.00;74988.22;4855807;28;104669;-73
2024/03/23 01:46:09;;;;;;;;;44.75;38.75;;;;;-143.90;100.00;74979.97;4864962;28;102081;-72
2024/03/23 01:48:34;;;;;;;;;52.25;40.50;;;;;-143.90;100.00;74986.16;4880954;28;102072;-73
2024/03/23 01:51:00;;;;;;;;;50.75;41.00;;;;;-143.90;100.00;74986.16;4864161;28;102310;-73
2024/03/23 01:53:26;;;;;;;;;46.50;37.00;;;;;-143.90;100.00;74986.16;4858583;28;104630;-73
2024/03/23 01:55:52;;;;;;;;;35.25;33.50;;;;;-143.90;100.00;74982.03;4882126;28;103989;-73
2024/03/23 01:58:17;;;;;;;;;50.75;38.50;;;;;-143.90;100.00;74986.16;4863593;28;102120;-74
2024/03/23 02:00:43;;;;;;;;;47.50;37.75;;;;;-143.90;100.00;74994.44;4870294;28;102708;-73
2024/03/23 02:03:27;;;;;;;;;45.75;37.00;;;;;-143.90;100.00;74982.03;4859562;28;104460;-73
2024/03/23 02:05:54;;;;;;;;;50.00;41.00;;;;;-143.90;100.00;74979.97;4860028;28;102935;-73
2024/03/23 02:08:21;;;;;;;;;35.00;32.00;;;;;-143.90;100.00;74967.56;4878581;28;102470;-73
2024/03/23 02:10:50;;;;;;;;;31.50;26.00;;;;;-143.90;100.00;74961.34;4869895;28;102515;-73
2024/03/23 02:13:19;;;;;;;;;27.00;23.50;;;;;-143.90;100.00;74953.09;4860890;28;107660;-74
2024/03/23 02:15:44;;;;;;;;;12.50;9.75;;;;;-143.90;100.00;74948.94;4858497;28;102487;-74
2024/03/23 02:18:10;;;;;;;;;23.00;21.00;;;;;-143.90;100.00;74944.81;4871760;28;102504;-74
2024/03/23 02:20:37;;;;;;;;;14.50;12.00;;;;;-143.90;100.00;74944.81;4871844;28;102690;-73
2024/03/23 02:23:05;;;;;;;;;10.75;10.25;;;;;-143.90;100.00;74940.69;4864663;28;104627;-72
2024/03/23 02:25:34;;;;;;;;;37.00;30.50;;;;;-143.90;100.00;74955.16;4839623;28;106251;-73
2024/03/23 02:28:00;;;;;;;;;43.00;35.00;;;;;-143.90;100.00;74977.88;4869420;28;102817;-72
2024/03/23 02:30:26;;;;;;;;;45.50;35.50;;;;;-143.90;100.00;74971.69;4884454;28;102593;-73
2024/03/23 02:32:52;;;;;;;;;30.75;28.00;;;;;-143.90;100.00;74967.56;4862236;28;104597;-73
2024/03/23 02:35:17;;;;;;;;;30.50;25.00;;;;;-143.90;100.00;74951.00;4871677;28;101821;-73
2024/03/23 02:37:43;;;;;;;;;18.25;16.75;;;;;-143.90;100.00;74936.53;4873313;28;102207;-74
2024/03/23 02:40:09;;;;;;;;;22.25;18.75;;;;;-143.90;100.00;74913.81;4866999;28;102320;-74
2024/03/23 02:42:34;;;;;;;;;14.75;12.25;;;;;-143.90;100.00;74899.34;4867468;28;104577;-73
2024/03/23 02:45:00;;;;;;;;;18.25;13.75;;;;;-143.90;100.00;74907.59;4870400;28;101865;-73
2024/03/23 02:47:25;;;;;;;;;16.50;14.50;;;;;-143.90;100.00;74899.34;4862164;28;101787;-74
2024/03/23 02:49:51;;;;;;;;;19.75;17.25;;;;;-143.90;100.00;74889.00;4873441;28;102261;-73
2024/03/23 02:52:16;;;;;;;;;16.25;14.75;;;;;-143.90;100.00;74874.53;4867526;28;107627;-73
2024/03/23 02:54:44;;;;;;;;;16.75;13.25;;;;;-143.90;100.00;74870.38;4871313;28;103099;-73
2024/03/23 02:57:10;;;;;;;;;27.50;27.00;;;;;-143.90;100.00;74858.00;4865840;28;102356;-73
2024/03/23 02:59:36;;;;;;;;;30.00;29.50;;;;;-143.90;100.00;74870.38;4867017;28;103081;-73
2024/03/23 03:02:04;;;;;;;;;28.00;26.25;;;;;-143.90;100.00;74853.84;4864158;28;104588;-72
2024/03/23 03:04:30;;;;;;;;;26.25;24.50;;;;;-143.90;100.00;74841.44;4862226;28;103632;-73
2024/03/23 03:06:56;;;;;;;;;29.75;27.00;;;;;-143.90;100.00;74831.13;4859575;28;102129;-73
2024/03/23 03:09:21;;;;;;;;;17.50;15.75;;;;;-143.90;100.00;74831.13;4871962;28;105150;-72
2024/03/23 03:11:47;;;;;;;;;20.75;16.75;;;;;-143.90;100.00;74833.19;4869301;28;109296;-72
2024/03/23 03:14:13;;;;;;;;;18.50;16.25;;;;;-143.90;100.00;74824.91;4885549;28;102098;-74
2024/03/23 03:16:38;;;;;;;;;12.00;11.00;;;;;-143.90;100.00;74831.13;4866157;28;102109;-74
2024/03/23 03:19:04;;;;;;;;;23.00;20.25;;;;;-143.90;100.00;74845.59;4866243;28;102089;-74
2024/03/23 03:21:30;;;;;;;;;23.75;19.00;;;;;-143.90;100.00;74841.44;4858467;28;104502;-74
2024/03/23 03:23:56;;;;;;;;;15.00;12.50;;;;;-143.90;100.00;74833.19;4871524;28;102350;-74
2024/03/23 03:26:22;;;;;;;;;17.75;15.00;;;;;-143.90;100.00;74831.13;4870099;28;102089;-74
2024/03/23 03:28:48;;;;;;;;;18.50;15.25;;;;;-143.90;100.00;74824.91;4866980;28;102098;-74
2024/03/23 03:31:20;;;;;;;;;20.00;17.75;;;;;-143.90;100.00;74824.91;4863365;28;104661;-74
2024/03/23 03:33:46;;;;;;;;;17.25;15.75;;;;;-143.90;100.00;74820.78;4876120;28;103129;-74
2024/03/23 03:36:12;;;;;;;;;15.75;13.75;;;;;-143.90;100.00;74822.84;4874244;28;102494;-74
2024/03/23 03:38:40;;;;;;;;;20.75;17.75;;;;;-143.90;100.00;74829.03;4869786;28;102161;-74
2024/03/23 03:41:06;;;;;;;;;20.75;18.75;;;;;-143.90;100.00;74849.72;4859633;28;106378;-74
2024/03/23 03:43:32;;;;;;;;;35.00;32.75;;;;;-143.90;100.00;74872.47;4859572;28;102115;-74
2024/03/23 03:45:59;;;;;;;;;43.25;36.75;;;;;-143.90;100.00;74882.78;4863820;28;102225;-74
2024/03/23 03:48:25;;;;;;;;;51.00;38.50;;;;;-143.90;100.00;74882.78;4872472;28;102664;-74
2024/03/23 03:50:50;;;;;;;;;34.25;28.75;;;;;-143.90;100.00;74884.88;4871246;28;104951;-74
2024/03/23 03:53:16;;;;;;;;;34.00;28.75;;;;;-143.90;100.00;74886.94;4859427;28;103963;-73
2024/03/23 03:55:41;;;;;;;;;24.25;22.50;;;;;-143.90;100.00;74880.72;4864161;28;102671;-72
2024/03/23 03:58:07;;;;;;;;;19.75;18.00;;;;;-143.90;100.00;74886.94;4863303;28;102494;-73
2024/03/23 04:00:33;;;;;;;;;22.00;19.00;;;;;-143.90;100.00;74884.88;4871199;28;104638;-73
2024/03/23 04:02:59;;;;;;;;;25.00;23.50;;;;;-143.90;100.00;74897.25;4886737;28;102116;-73
2024/03/23 04:05:24;;;;;;;;;43.25;37.50;;;;;-143.90;100.00;74924.13;4860590;28;102268;-73
2024/03/23 04:07:50;;;;;;;;;53.50;38.25;;;;;-143.90;100.00;74936.53;4872701;28;102312;-73
2024/03/23 04:10:16;;;;;;;;;44.25;35.25;;;;;-143.90;100.00;74942.75;4874640;28;104439;-73
2024/03/23 04:12:43;;;;;;;;;41.50;33.00;;;;;-143.90;100.00;74944.81;4885379;28;102289;-74
2024/03/23 04:15:08;;;;;;;;;42.75;36.25;;;;;-143.90;100.00;74934.47;4887038;28;102589;-73
2024/03/23 04:17:34;;;;;;;;;31.00;28.00;;;;;-143.90;100.00;74936.53;4857045;28;102728;-73
2024/03/23 04:20:01;;;;;;;;;49.00;38.50;;;;;-143.90;100.00;74936.53;4868388;28;104460;-73
2024/03/23 04:22:27;;;;;;;;;39.25;32.00;;;;;-143.90;100.00;74922.06;4871598;28;102626;-73
2024/03/23 04:24:54;;;;;;;;;33.75;28.75;;;;;-143.90;100.00;74922.06;4885366;28;102549;-73
2024/03/23 04:27:19;;;;;;;;;41.75;32.75;;;;;-143.90;100.00;74930.34;4869152;28;102063;-74
2024/03/23 04:29:49;;;;;;;;;55.25;44.75;;;;;-143.90;100.00;74957.22;4864329;28;104704;-73
2024/03/23 04:32:15;;;;;;;;;51.25;41.50;;;;;-143.90;100.00;74957.22;4873467;28;102399;-73
2024/03/23 04:34:40;;;;;;;;;40.75;34.75;;;;;-143.90;100.00;74944.81;4884094;28;102175;-73
2024/03/23 04:37:06;;;;;;;;;32.25;28.00;;;;;-143.90;100.00;74932.41;4872794;28;102423;-73
2024/03/23 04:39:31;;;;;;;;;24.75;22.75;;;;;-143.90;100.00;74920.00;4863306;28;104569;-73
2024/03/23 04:41:57;;;;;;;;;32.50;29.00;;;;;-143.90;100.00;74922.06;4878574;28;102517;-73
2024/03/23 04:44:22;;;;;;;;;26.50;22.00;;;;;-143.90;100.00;74920.00;4883071;28;102296;-73
2024/03/23 04:46:48;;;;;;;;;25.75;22.25;;;;;-143.90;100.00;74924.13;4869057;28;102308;-73
2024/03/23 04:49:14;;;;;;;;;33.75;27.25;;;;;-143.90;100.00;74920.00;4873460;28;104617;-73
2024/03/23 04:51:41;;;;;;;;;22.25;18.75;;;;;-143.90;100.00;74907.59;4866605;28;102390;-74
2024/03/23 04:54:07;;;;;;;;;27.00;24.00;;;;;-143.90;100.00;74903.47;4864773;28;102341;-73
2024/03/23 04:56:33;;;;;;;;;26.75;22.50;;;;;-143.90;100.00;74897.25;4869797;28;101953;-73
2024/03/23 04:59:01;;;;;;;;;38.25;33.50;;;;;-143.90;100.00;74907.59;4873274;28;104976;-73
2024/03/23 05:01:27;;;;;;;;;53.75;39.25;;;;;-143.90;100.00;74915.88;4851996;28;103126;-73
2024/03/23 05:03:53;;;;;;;;;42.00;37.50;;;;;-143.90;100.00;74909.66;4888670;28;102456;-74
2024/03/23 05:06:19;;;;;;;;;49.75;41.25;;;;;-143.90;100.00;74909.66;4867717;28;102368;-74
2024/03/23 05:08:45;;;;;;;;;44.25;35.25;;;;;-143.90;100.00;74905.53;4874638;28;104584;-74
2024/03/23 05:11:11;;;;;;;;;47.25;38.00;;;;;-143.90;100.00;74905.53;4878574;28;102365;-74
2024/03/23 05:13:37;;;;;;;;;55.25;44.75;;;;;-143.90;100.00;74915.88;4869664;28;103361;-74
2024/03/23 05:16:03;;;;;;;;;46.25;39.00;;;;;-143.90;100.00;74924.13;4866888;28;103109;-74
2024/03/23 05:18:29;;;;;;;;;46.00;39.25;;;;;-143.90;100.00;74917.94;4882583;28;104755;-74
2024/03/23 05:20:58;;;;;;;;;38.25;34.50;;;;;-143.90;100.00;74907.59;4874662;28;102776;-74
2024/03/23 05:23:25;;;;;;;;;43.00;38.00;;;;;-143.90;100.00;74907.59;4870391;28;101988;-73
2024/03/23 05:25:51;;;;;;;;;40.00;34.25;;;;;-143.90;100.00;74901.41;4867997;28;102440;-72
2024/03/23 05:28:17;;;;;;;;;36.50;31.25;;;;;-143.90;100.00;74891.06;4866319;28;104583;-72
2024/03/23 05:30:43;;;;;;;;;24.50;22.00;;;;;-143.90;100.00;74872.47;4863509;28;103566;-73
2024/03/23 05:33:09;;;;;;;;;22.25;20.50;;;;;-143.90;100.00;74866.25;4865846;28;102452;-73
2024/03/23 05:35:34;;;;;;;;;23.00;18.50;;;;;-143.90;100.00;74851.78;4857786;28;102709;-73
2024/03/23 05:38:00;;;;;;;;;26.25;24.25;;;;;-143.90;100.00;74858.00;4869037;28;104405;-73
2024/03/23 05:40:26;;;;;;;;;21.75;20.50;;;;;-143.90;100.00;74858.00;4886372;28;102306;-73
2024/03/23 05:42:52;;;;;;;;;23.50;19.50;;;;;-143.90;100.00;74853.84;4865527;28;102746;-73
2024/03/23 05:45:19;;;;;;;;;29.75;28.25;;;;;-143.90;100.00;74866.25;4872613;28;103069;-73
2024/03/23 05:47:44;;;;;;;;;30.00;26.25;;;;;-143.90;100.00;74851.78;4864877;28;105203;-73
2024/03/23 05:50:12;;;;;;;;;21.25;17.25;;;;;-143.90;100.00;74841.44;4866447;28;102589;-74
2024/03/23 05:52:38;;;;;;;;;29.50;24.00;;;;;-143.90;100.00;74845.59;4868740;28;102325;-73
2024/03/23 05:55:05;;;;;;;;;34.25;27.25;;;;;-143.90;100.00;74841.44;4875876;28;102062;-73
2024/03/23 05:57:31;;;;;;;;;26.25;20.50;;;;;-143.90;100.00;74829.03;4865203;28;104738;-73
2024/03/23 05:59:56;;;;;;;;;18.75;16.25;;;;;-143.90;100.00;74820.78;4868579;28;102193;-73
2024/03/23 06:02:23;;;;;;;;;15.75;14.75;;;;;-143.90;100.00;74808.38;4870313;28;102478;-74
2024/03/23 06:04:49;;;;;;;;;19.00;15.50;;;;;-143.90;100.00;74804.25;4867016;28;102830;-74
2024/03/23 06:07:15;;;;;;;;;12.50;11.25;;;;;-143.90;100.00;74804.25;4868875;28;104784;-74
2024/03/23 06:09:44;;;;;;;;;12.75;10.25;;;;;-143.90;100.00;74795.97;4865821;28;102299;-73
2024/03/23 06:12:09;;;;;;;;;9.25;9.00;;;;;-143.90;100.00;74785.63;4864270;28;102394;-73
2024/03/23 06:14:35;;;;;;;;;8.75;7.25;;;;;-143.90;100.00;74787.69;4870389;28;102754;-73
2024/03/23 06:17:00;;;;;;;;;12.00;9.00;;;;;-143.90;100.00;74771.16;4871167;28;104515;-73
2024/03/23 06:19:27;;;;;;;;;15.25;14.00;;;;;-143.90;100.00;74758.75;4862287;28;102029;-73
2024/03/23 06:21:54;;;;;;;;;15.75;12.75;;;;;-143.90;100.00;74750.50;4862881;28;102676;-73
2024/03/23 06:24:21;;;;;;;;;8.25;7.50;;;;;-143.90;100.00;74748.44;4867826;28;102086;-73
2024/03/23 06:26:47;;;;;;;;;7.75;7.00;;;;;-143.90;100.00;74742.22;4879439;28;103312;-73
2024/03/23 06:29:13;;;;;;;;;7.00;7.00;;;;;-143.90;100.00;74729.81;4868643;28;102729;-73
2024/03/23 06:31:39;;;;;;;;;7.75;7.00;;;;;-143.90;100.00;74721.56;4858618;28;102090;-73
2024/03/23 06:34:04;;;;;;;;;5.50;5.50;;;;;-143.90;100.00;74709.16;4862565;28;102456;-73
2024/03/23 06:36:30;;;;;;;;;3.00;3.00;;;;;-143.90;100.00;74700.88;4870440;28;104802;-73
2024/03/23 06:38:56;;;;;;;;;7.75;7.75;;;;;-143.90;100.00;74688.47;4862601;28;102742;-73
2024/03/23 06:41:22;;;;;;;;;7.75;7.75;;;;;-143.90;100.00;74676.06;4862915;28;102557;-73
2024/03/23 06:43:48;;;;;;;;;10.25;8.25;;;;;-143.90;100.00;74659.53;4869571;28;102349;-73
2024/03/23 06:46:14;;;;;;;;;9.25;5.00;;;;;-143.90;100.00;74643.00;4880057;28;104539;-73
2024/03/23 06:48:39;;;;;;;;;7.25;5.00;;;;;-143.90;100.00;74630.59;4879119;28;102956;-72
2024/03/23 06:51:06;;;;;;;;;7.50;6.00;;;;;-143.90;100.00;74618.19;4866497;28;102141;-72
2024/03/23 06:53:32;;;;;;;;;12.50;9.00;;;;;-143.90;100.00;74599.59;4860337;28;102809;-73
2024/03/23 06:55:58;;;;;;;;;9.75;9.75;;;;;-143.90;100.00;74574.78;4863639;28;103829;-72
2024/03/23 06:58:25;;;;;;;;;13.25;11.00;;;;;-143.90;100.00;74560.31;4868512;28;103282;-73
2024/03/23 07:00:50;;;;;;;;;8.00;7.50;;;;;-143.90;100.00;74541.72;4861979;28;103552;-74
2024/03/23 07:03:17;;;;;;;;;11.25;9.50;;;;;-143.90;100.00;74533.44;4873698;28;102132;-72
2024/03/23 07:05:42;;;;;;;;;9.50;9.50;;;;;-143.90;100.00;74518.97;4862691;28;104529;-72
2024/03/23 07:08:08;;;;;;;;;16.00;12.25;;;;;-143.90;100.00;74506.56;4869540;28;102735;-73
2024/03/23 07:10:35;;;;;;;;;13.75;10.25;;;;;-143.90;100.00;74492.09;4864133;28;102083;-73
2024/03/23 07:13:01;;;;;;;;;8.25;7.50;;;;;-143.90;100.00;74475.56;4866068;28;102595;-73
2024/03/23 07:15:27;;;;;;;;;11.25;10.00;;;;;-143.90;100.00;74461.09;4861620;28;105563;-72
2024/03/23 07:17:52;;;;;;;;;13.50;9.50;;;;;-143.90;100.00;74442.50;4868330;28;101859;-73
2024/03/23 07:20:18;;;;;;;;;11.00;10.00;;;;;-143.90;100.00;74417.69;4854261;28;102128;-73
2024/03/23 07:22:45;;;;;;;;;8.75;6.00;;;;;-143.90;100.00;74409.41;4863442;28;102547;-72
2024/03/23 07:25:11;;;;;;;;;16.00;14.50;;;;;-143.90;100.00;74397.03;4857334;28;104858;-73
2024/03/23 07:27:36;;;;;;;;;12.75;8.25;;;;;-143.90;100.00;74382.56;4851003;28;102472;-73
2024/03/23 07:30:02;;;;;;;;;9.00;5.75;;;;;-143.90;100.00;74368.09;4860925;28;102442;-73
2024/03/23 07:32:28;;;;;;;;;12.25;10.50;;;;;-143.90;100.00;74351.53;4862634;28;102665;-72
2024/03/23 07:34:53;;;;;;;;;11.00;9.75;;;;;-143.90;100.00;74320.53;4857607;28;104523;-73
2024/03/23 07:37:19;;;;;;;;;16.50;12.50;;;;;-143.90;100.00;74283.34;4852910;28;102391;-74
2024/03/23 07:39:45;;;;;;;;;14.50;14.00;;;;;-143.90;100.00;74242.00;4859807;28;102341;-74
2024/03/23 07:42:10;;;;;;;;;17.50;14.00;;;;;-143.90;100.00;74213.06;4865113;28;102286;-73
2024/03/23 07:44:36;;;;;;;;;11.00;10.00;;;;;-143.90;100.00;74190.31;4845733;28;104553;-74
2024/03/23 07:47:01;;;;;;;;;12.50;10.25;;;;;-143.90;100.00;74167.59;4780975;28;103390;-73
2024/03/23 07:49:27;;;;;;;;;11.50;11.00;;;;;-143.90;100.00;74153.13;4772031;28;103369;-73
2024/03/23 07:51:53;;;;;;;;;11.25;10.50;;;;;-143.90;100.00;74146.91;4821495;28;103805;-74
2024/03/23 07:54:19;;;;;;;;;15.75;12.25;;;;;-143.90;100.00;74142.78;4815301;28;103798;-74
2024/03/23 07:56:44;;;;;;;;;12.50;11.00;;;;;-143.90;100.00;74120.06;4774729;28;108767;-74
2024/03/23 07:59:10;;;;;;;;;14.00;14.00;;;;;-143.90;100.00;74132.44;4781958;28;104124;-73
2024/03/23 08:01:36;;;;;;;;;18.25;16.00;;;;;-143.90;100.00;74103.53;4770596;28;104020;-74
2024/03/23 08:04:02;;;;;;;;;14.50;13.25;;;;;-143.90;100.00;74089.06;4824359;28;104507;-74
2024/03/23 08:06:28;;;;;;;;;13.75;12.25;;;;;-143.90;100.00;74084.91;4855024;28;102570;-73
2024/03/23 08:08:59;;;;;;;;;19.00;16.00;;;;;-143.90;100.00;74107.66;4868294;28;102756;-73
2024/03/23 08:11:30;;;;;;;;;15.75;15.50;;;;;-143.90;100.00;74103.53;4854722;28;102412;-73
2024/03/23 08:13:57;;;;;;;;;18.00;16.00;;;;;-143.90;100.00;74080.78;4858276;28;109006;-73
2024/03/23 08:16:23;;;;;;;;;14.50;12.00;;;;;-143.90;100.00;74072.50;4882749;28;103370;-73
2024/03/23 08:18:51;;;;;;;;;24.75;21.00;;;;;-143.90;100.00;74068.38;4860340;28;103026;-73
2024/03/23 08:21:17;;;;;;;;;17.50;15.75;;;;;-143.90;100.00;74055.97;4860978;28;102340;-73
2024/03/23 08:23:42;;;;;;;;;24.75;19.25;;;;;-143.90;100.00;74055.97;4856483;28;103258;-73
2024/03/23 08:26:09;;;;;;;;;19.50;17.25;;;;;-143.90;100.00;74043.59;4867869;28;102442;-73
2024/03/23 08:28:36;;;;;;;;;21.25;20.00;;;;;-143.90;100.00;74027.03;4881189;28;102470;-74
2024/03/23 08:31:06;;;;;;;;;23.25;19.25;;;;;-143.90;100.00;74000.19;4865174;28;102288;-74
2024/03/23 08:33:32;;;;;;;;;23.50;21.75;;;;;-143.90;100.00;73973.31;4870574;28;104667;-73
2024/03/23 08:36:00;;;;;;;;;20.50;19.25;;;;;-143.90;100.00;73934.03;4865002;28;102389;-73
2024/03/23 08:38:27;;;;;;;;;18.75;16.75;;;;;-143.90;100.00;73890.63;4866297;28;102041;-74
2024/03/23 08:41:19;;;;;;;;;21.25;19.75;;;;;-143.90;100.00;73849.31;4868034;28;102057;-74
2024/03/23 08:43:44;;;;;;;;;23.00;18.50;;;;;-143.90;73.67;73838.97;4852652;28;109548;-74
2024/03/23 08:46:15;;;;;;;;;22.00;20.75;;;;;-143.90;68.97;73849.31;4877787;28;102068;-74
2024/03/23 08:48:45;;;;;;;;;18.50;17.25;;;;;-143.90;73.29;73822.44;4875968;28;102631;-73
2024/03/23 08:51:13;;;;;;;;;26.50;23.00;;;;;-143.90;71.62;73816.25;4860469;28;103024;-75
2024/03/23 08:53:40;;;;;;;;;19.00;19.00;;;;;-143.90;74.23;73791.44;4850717;28;103422;-74
2024/03/23 08:56:07;;;;;;;;;17.75;16.00;;;;;-143.90;66.35;73768.69;4860574;28;102457;-73
2024/03/23 08:58:33;;;;;;;;;23.00;18.25;;;;;-143.90;68.62;73741.84;4860000;28;102220;-73
2024/03/23 09:01:04;;;;;;;;;16.25;15.00;;;;;-143.90;69.04;73704.63;4860705;28;102869;-73
2024/03/23 09:03:30;;;;;;;;;13.25;10.75;;;;;-143.90;67.21;73679.84;4852794;28;107850;-73
2024/03/23 09:05:58;;;;;;;;;21.75;21.00;;;;;-143.90;63.00;73683.97;4879240;28;102112;-72
2024/03/23 09:08:23;;;;;;;;;22.50;21.00;;;;;-143.90;66.36;73688.09;4870835;28;102053;-73
2024/03/23 09:10:49;;;;;;;;;25.25;22.25;;;;;-143.90;65.63;73671.56;4863423;28;102625;-74
2024/03/23 09:13:16;;;;;;;;;21.75;18.75;;;;;-143.90;64.76;73665.38;4856267;28;104633;-74
2024/03/23 09:15:49;;;;;;;;;16.75;14.75;;;;;-143.90;61.90;73655.03;4848032;28;103264;-73
2024/03/23 09:18:15;;;;;;;;;16.75;16.75;;;;;-143.90;62.28;73659.16;4856924;28;103408;-73
2024/03/23 09:20:41;;;;;;;;;20.50;17.50;;;;;-143.90;63.78;73646.78;4862511;28;102736;-74
2024/03/23 09:23:07;;;;;;;;;17.50;16.75;;;;;-143.90;65.10;73634.38;4862587;28;104517;-74
2024/03/23 09:25:37;;;;;;;;;12.75;12.00;;;;;-143.90;64.18;73626.09;4855465;28;102427;-74
2024/03/23 09:28:03;;;;;;;;;18.50;16.00;;;;;-143.90;63.51;73621.97;4859774;28;102504;-74
2024/03/23 09:30:29;;;;;;;;;14.75;14.25;;;;;-143.90;64.23;73621.97;4862741;28;102693;-72
2024/03/23 09:32:54;;;;;;;;;17.00;12.25;;;;;-143.90;61.46;73593.03;4863191;28;102677;-72
2024/03/23 09:35:20;;;;;;;;;14.00;13.00;;;;;-143.90;58.71;73582.72;4854032;28;102156;-74
2024/03/23 09:37:45;;;;;;;;;13.50;12.00;;;;;-143.90;58.54;73564.09;4850975;28;102463;-74
2024/03/23 09:40:11;;;;;;;;;10.25;10.00;;;;;-143.90;56.59;73549.63;4868630;28;102484;-73
2024/03/23 09:42:38;;;;;;;;;15.00;12.25;;;;;-143.90;55.68;73531.03;4862448;28;103346;-73
2024/03/23 09:45:16;;;;;;;;;11.00;10.00;;;;;-143.90;53.79;73506.25;4863656;28;102015;-73
2024/03/23 09:47:42;;;;;;;;;11.67;10.00;;;;;-143.90;53.63;73475.25;4849835;28;102667;-73
2024/03/23 09:50:09;;;;;;;;;9.67;9.00;;;;;-143.90;50.63;73466.97;4865889;28;102497;-73
2024/03/23 09:52:34;;;;;;;;;10.00;8.00;;;;;-143.90;48.07;73458.72;4862820;28;104579;-74
2024/03/23 09:55:00;;;;;;;;;6.33;6.33;;;;;-143.90;48.96;73452.50;4881853;28;102351;-74
2024/03/23 09:57:26;;;;;;;;;8.67;6.00;;;;;-143.90;48.42;73444.25;4863880;28;102447;-74
2024/03/23 09:59:51;;;;;;;;;5.00;5.00;;;;;-143.90;45.87;73464.91;4879892;28;102234;-75
2024/03/23 10:02:20;;;;;;;;;10.67;8.00;;;;;-143.90;44.60;73473.19;4876624;28;104991;-74
2024/03/23 10:04:46;;;;;;;;;8.00;7.67;;;;;-143.90;46.73;73462.84;4866734;28;104716;-74
2024/03/23 10:07:12;;;;;;;;;6.33;5.67;;;;;-143.90;44.01;73475.25;4864782;28;105373;-74
2024/03/23 10:09:38;;;;;;;;;8.33;7.67;;;;;-143.90;43.95;73456.66;4870136;28;102673;-75
2024/03/23 10:12:12;;;;;;;;;8.00;5.67;;;;;-143.90;45.38;73429.78;4864900;28;104628;-74
2024/03/23 10:14:37;;;;;;;;;6.00;6.00;;;;;-143.90;42.84;73411.19;4884150;28;102113;-73
2024/03/23 10:17:20;;;;;;;;;8.33;6.00;;;;;-143.90;44.25;73402.91;4867435;28;102161;-73
2024/03/23 10:19:47;;;;;;;;;6.00;6.00;;;;;-143.90;43.59;73378.13;4870797;28;102296;-74
2024/03/23 10:22:15;;;;;;;;;6.33;6.00;;;;;-143.90;44.69;73353.31;4879462;28;104571;-74
2024/03/23 10:24:42;;;;;;;;;7.00;7.00;;;;;-143.90;43.36;73340.94;4864898;28;103069;-74
2024/03/23 10:27:07;;;;;;;;;7.00;6.00;;;;;-143.90;42.88;73320.25;4864205;28;102153;-75
2024/03/23 10:29:33;;;;;;;;;7.00;7.00;;;;;-143.90;42.86;73307.84;4861638;28;102245;-73
2024/03/23 10:32:09;;;;;;;;;9.00;8.00;;;;;-143.90;41.97;73318.19;4868775;28;104502;-74
2024/03/23 10:34:36;;;;;;;;;8.67;7.00;;;;;-143.90;41.21;73303.72;4866923;28;102169;-72
2024/03/23 10:37:03;;;;;;;;;7.67;6.67;;;;;-143.90;41.04;73295.47;4865097;28;102388;-74
2024/03/23 10:39:33;;;;;;;;;7.67;6.00;;;;;-143.90;41.49;73285.13;4855152;28;102030;-73
2024/03/23 10:42:01;;;;;;;;;6.67;6.67;;;;;-143.90;40.69;73283.06;4879468;28;104588;-74
2024/03/23 10:44:29;;;;;;;;;6.33;6.33;;;;;-143.90;40.17;73274.81;4866699;28;102212;-73
2024/03/23 10:46:59;;;;;;;;;5.67;5.67;;;;;-143.90;40.44;73252.06;4864223;28;102006;-74
2024/03/23 10:49:35;;;;;;;;;8.67;8.00;;;;;-143.90;39.93;73285.13;4859737;28;102043;-73